createdAt,value
2023-01-04T00:04:47.783Z,4.62
2023-01-04T00:09:49.863Z,4.47
2023-01-04T00:14:47.658Z,4.42
2023-01-04T00:19:47.723Z,4.39
2023-01-04T00:24:48.166Z,4.34
2023-01-04T00:29:47.626Z,4.34
2023-01-04T00:34:47.662Z,4.32
2023-01-04T00:39:48.015Z,4.24
2023-01-04T00:44:47.628Z,4.19
2023-01-04T00:49:47.605Z,4.03
2023-01-04T00:54:47.983Z,4.03
2023-01-04T00:59:47.707Z,3.91
2023-01-04T01:04:47.622Z,3.88
2023-01-04T01:09:48.069Z,3.88
2023-01-04T01:14:47.628Z,3.84
2023-01-04T01:19:47.776Z,3.79
2023-01-04T01:24:48.164Z,3.62
2023-01-04T01:29:47.698Z,3.56
2023-01-04T01:34:47.869Z,3.54
2023-01-04T01:39:48.245Z,3.54
2023-01-04T01:44:57.921Z,3.52
2023-01-04T01:49:50.932Z,3.44
2023-01-04T01:54:54.647Z,3.32
2023-01-04T01:59:51.084Z,3.21
2023-01-04T02:04:50.337Z,3.21
2023-01-04T02:09:49.136Z,3.09
2023-01-04T02:14:50.033Z,3.02
2023-01-04T02:20:02.973Z,3.08
2023-01-04T02:25:06.650Z,3.03
2023-01-04T02:30:07.143Z,3.09
2023-01-04T02:34:59.053Z,2.99
2023-01-04T02:39:57.572Z,2.90
2023-01-04T02:44:54.881Z,2.68
2023-01-04T02:50:02.433Z,2.59
2023-01-04T02:54:51.346Z,2.46
2023-01-04T02:59:58.927Z,2.34
2023-01-04T03:05:07.818Z,2.22
2023-01-04T03:09:52.059Z,2.11
2023-01-04T03:14:50.987Z,2.02
2023-01-04T03:19:53.008Z,1.96
2023-01-04T03:24:57.505Z,1.91
2023-01-04T03:30:03.433Z,1.87
2023-01-04T03:34:58.729Z,1.75
2023-01-04T03:40:11.696Z,1.69
2023-01-04T03:45:09.996Z,1.66
2023-01-04T03:49:56.469Z,1.58
2023-01-04T03:54:49.410Z,1.50
2023-01-04T03:59:51.134Z,1.45
2023-01-04T04:04:57.559Z,1.43
2023-01-04T04:09:47.422Z,1.40
2023-01-04T04:14:47.502Z,1.39
2023-01-04T04:19:47.784Z,1.35
2023-01-04T04:24:47.584Z,1.37
2023-01-04T04:29:47.459Z,1.36
2023-01-04T04:34:47.687Z,1.37
2023-01-04T04:39:47.381Z,1.39
2023-01-04T04:44:47.416Z,1.38
2023-01-04T04:49:47.885Z,1.29
2023-01-04T04:54:47.389Z,1.25
2023-01-04T04:59:47.554Z,1.24
2023-01-04T05:04:47.409Z,1.22
2023-01-04T05:09:47.354Z,1.23
2023-01-04T05:14:47.533Z,1.27
2023-01-04T05:19:49.433Z,1.23
2023-01-04T05:24:47.328Z,1.22
2023-01-04T05:29:57.341Z,1.20
2023-01-04T05:34:47.472Z,1.25
2023-01-04T05:39:47.715Z,1.23
2023-01-04T05:44:47.396Z,1.26
2023-01-04T05:49:48.191Z,1.21
2023-01-04T05:54:47.360Z,1.22
2023-01-04T05:59:47.585Z,1.23
2023-01-04T06:04:51.577Z,1.18
2023-01-04T06:09:47.798Z,1.13
2023-01-04T06:14:47.340Z,1.15
2023-01-04T06:19:47.382Z,1.10
2023-01-04T06:24:47.605Z,1.13
2023-01-04T06:29:47.465Z,1.15
2023-01-04T06:34:47.518Z,1.16
2023-01-04T06:39:47.492Z,1.17
2023-01-04T06:44:47.648Z,1.17
2023-01-04T06:49:47.389Z,1.05
2023-01-04T06:54:47.664Z,1.04
2023-01-04T06:59:47.667Z,1.05
2023-01-04T07:04:47.432Z,1.12
2023-01-04T07:09:47.549Z,1.17
2023-01-04T07:14:47.598Z,1.20
2023-01-04T07:19:47.266Z,1.14
2023-01-04T07:24:47.970Z,1.25
2023-01-04T07:29:47.540Z,1.40
2023-01-04T07:34:47.240Z,1.31
2023-01-04T07:39:47.761Z,1.47
2023-01-04T07:44:47.459Z,1.61
2023-01-04T07:49:47.903Z,1.67
2023-01-04T07:54:47.790Z,1.79
2023-01-04T07:59:47.462Z,2.05
2023-01-04T08:04:47.286Z,2.70
2023-01-04T08:09:47.202Z,9.37
2023-01-04T08:14:47.405Z,13.46
2023-01-04T08:19:47.177Z,11.77
2023-01-04T08:24:47.207Z,8.83
2023-01-04T08:29:47.454Z,7.03
2023-01-04T08:34:47.144Z,6.01
2023-01-04T08:39:49.605Z,5.18
2023-01-04T08:44:47.498Z,4.70
2023-01-04T08:49:47.171Z,4.40
2023-01-04T08:54:48.134Z,4.28
2023-01-04T08:59:47.415Z,5.02
2023-01-04T09:04:47.395Z,5.23
2023-01-04T09:09:47.191Z,5.58
2023-01-04T09:14:47.313Z,5.85
2023-01-04T09:19:47.126Z,7.52
2023-01-04T09:24:47.169Z,10.66
2023-01-04T09:29:47.499Z,10.53
2023-01-04T09:34:47.441Z,9.60
2023-01-04T09:39:47.159Z,9.12
2023-01-04T09:49:51.305Z,9.01
2023-01-04T09:54:57.479Z,12.22
2023-01-04T09:59:48.977Z,16.22
2023-01-04T10:04:49.049Z,19.52
2023-01-04T10:09:47.677Z,15.23
2023-01-04T10:14:57.760Z,12.31
2023-01-04T10:21:23.208Z,10.41
2023-01-04T10:24:59.506Z,9.77
2023-01-04T10:29:57.091Z,12.35
2023-01-04T10:34:47.864Z,12.30
2023-01-04T10:39:51.432Z,11.04
2023-01-04T10:45:09.070Z,10.31
2023-01-04T10:49:52.715Z,10.51
2023-01-04T10:54:51.480Z,10.52
2023-01-04T10:59:53.815Z,9.99
2023-01-04T11:04:53.727Z,9.36
2023-01-04T11:09:53.673Z,8.95
2023-01-04T11:14:47.575Z,8.48
2023-01-04T11:19:48.353Z,7.81
2023-01-04T11:25:32.682Z,7.41
2023-01-04T11:29:52.343Z,7.37
2023-01-04T11:34:50.957Z,7.16
2023-01-04T11:39:47.462Z,6.90
2023-01-04T11:44:57.899Z,6.63
2023-01-04T11:49:47.853Z,6.42
2023-01-04T11:54:47.399Z,6.27
2023-01-04T12:00:06.638Z,6.11
2023-01-04T12:04:48.314Z,5.94
2023-01-04T12:09:47.442Z,5.77
2023-01-04T12:14:48.544Z,5.61
2023-01-04T12:19:49.752Z,5.52
2023-01-04T12:24:48.075Z,5.46
2023-01-04T12:29:55.340Z,5.55
2023-01-04T12:34:47.391Z,5.57
2023-01-04T12:39:47.509Z,5.67
2023-01-04T12:44:59.654Z,5.59
2023-01-04T12:49:51.193Z,5.53
2023-01-04T12:54:49.798Z,5.40
2023-01-04T12:59:53.967Z,5.38
2023-01-04T13:04:48.493Z,5.39
2023-01-04T13:09:52.469Z,5.31
2023-01-04T13:14:50.680Z,5.27
2023-01-04T13:19:48.072Z,5.27
2023-01-04T13:24:49.943Z,5.22
2023-01-04T13:29:48.324Z,5.18
2023-01-04T13:34:51.302Z,5.20
2023-01-04T13:39:49.067Z,5.24
2023-01-04T13:45:20.764Z,5.25
2023-01-04T13:49:48.263Z,5.27
2023-01-04T13:54:47.279Z,5.26
2023-01-04T13:59:47.883Z,5.28
2023-01-04T14:04:48.858Z,5.30
2023-01-04T14:09:51.131Z,5.37
2023-01-04T14:14:52.675Z,5.45
2023-01-04T14:19:49.254Z,5.53
2023-01-04T14:25:10.505Z,5.55
2023-01-04T14:29:46.927Z,5.56
2023-01-04T14:34:47.209Z,5.61
2023-01-04T14:39:47.332Z,5.66
2023-01-04T14:44:46.911Z,5.67
2023-01-04T14:49:47.199Z,5.72
2023-01-04T14:54:47.222Z,5.73
2023-01-04T14:59:47.114Z,5.75
2023-01-04T15:04:46.875Z,5.76
2023-01-04T15:09:47.760Z,5.71
2023-01-04T15:14:46.979Z,5.70
2023-01-04T15:19:47.093Z,5.66
2023-01-04T15:24:47.220Z,5.58
2023-01-04T15:29:46.944Z,5.57
2023-01-04T15:34:47.963Z,5.56
2023-01-04T15:39:47.393Z,5.54
2023-01-04T15:44:47.086Z,5.53
2023-01-04T15:49:47.279Z,5.54
2023-01-04T15:54:47.241Z,5.59
2023-01-04T15:59:47.926Z,5.59
2023-01-04T16:04:46.949Z,5.61
2023-01-04T16:09:47.191Z,5.59
2023-01-04T16:14:47.126Z,5.58
2023-01-04T16:19:47.070Z,5.56
2023-01-04T16:25:11.158Z,5.50
2023-01-04T16:29:49.388Z,5.50
2023-01-04T16:34:48.716Z,5.49
2023-01-04T16:40:05.838Z,5.50
2023-01-04T16:44:46.935Z,5.50
2023-01-04T16:49:50.314Z,5.56
2023-01-04T16:54:47.802Z,5.50
2023-01-04T16:59:47.153Z,5.49
2023-01-04T17:04:51.888Z,5.44
2023-01-04T17:09:48.776Z,5.44
2023-01-04T17:15:00.890Z,5.44
2023-01-04T17:19:47.286Z,5.40
2023-01-04T17:24:47.352Z,5.38
2023-01-04T17:29:46.925Z,5.33
2023-01-04T17:34:48.688Z,5.35
2023-01-04T17:39:47.499Z,5.38
2023-01-04T17:44:47.273Z,5.37
2023-01-04T17:49:46.865Z,5.38
2023-01-04T17:54:47.214Z,5.37
2023-01-04T17:59:46.915Z,5.39
2023-01-04T18:04:47.067Z,5.36
2023-01-04T18:09:47.593Z,5.39
2023-01-04T18:11:08.244Z,5.39
2023-01-04T18:14:47.449Z,5.37
2023-01-04T18:19:46.965Z,5.39
2023-01-04T18:24:47.163Z,5.35
2023-01-04T18:29:47.070Z,5.35
2023-01-04T18:34:47.043Z,5.32
2023-01-04T18:39:49.188Z,5.30
2023-01-04T18:44:49.363Z,5.24
2023-01-04T18:49:47.393Z,5.30
2023-01-04T18:54:47.562Z,5.31
2023-01-04T18:59:49.233Z,5.34
2023-01-04T19:04:46.765Z,5.32
2023-01-04T19:09:47.627Z,5.35
2023-01-04T19:14:48.211Z,5.37
2023-01-04T19:19:46.737Z,5.42
2023-01-04T19:24:47.267Z,5.43
2023-01-04T19:29:46.781Z,5.49
2023-01-04T19:34:46.901Z,5.48
2023-01-04T19:39:47.331Z,5.51
2023-01-04T19:44:46.701Z,5.52
2023-01-04T19:49:47.179Z,5.52
2023-01-04T19:54:47.274Z,5.57
2023-01-04T19:59:46.691Z,5.63
2023-01-04T20:04:46.796Z,5.69
2023-01-04T20:09:48.087Z,5.75
2023-01-04T20:14:46.693Z,5.80
2023-01-04T20:19:46.840Z,5.82
2023-01-04T20:24:47.467Z,5.88
2023-01-04T20:29:46.716Z,5.90
2023-01-04T20:34:46.835Z,5.95
2023-01-04T20:39:47.109Z,6.00
2023-01-04T20:44:46.810Z,6.05
2023-01-04T20:49:46.992Z,6.10
2023-01-04T20:54:48.264Z,6.17
2023-01-04T20:59:46.675Z,6.20
2023-01-04T21:04:46.850Z,6.22
2023-01-04T21:09:47.523Z,6.26
2023-01-04T21:14:46.850Z,6.29
2023-01-04T21:16:40.894Z,6.29
2023-01-04T21:19:46.633Z,6.30
2023-01-04T21:24:47.272Z,6.31
2023-01-04T21:29:46.909Z,6.36
2023-01-04T21:34:46.988Z,6.37
2023-01-04T21:39:47.268Z,6.38
2023-01-04T21:44:46.704Z,6.43
2023-01-04T21:49:46.946Z,6.48
2023-01-04T21:54:47.416Z,6.52
2023-01-04T21:59:46.849Z,6.55
2023-01-04T22:04:46.854Z,6.60
2023-01-04T22:09:50.044Z,6.61
2023-01-04T22:14:46.855Z,6.59
2023-01-04T22:19:46.827Z,6.65
2023-01-04T22:24:47.461Z,6.67
2023-01-04T22:29:46.982Z,6.69
2023-01-04T22:34:46.729Z,6.70
2023-01-04T22:39:47.413Z,6.75
2023-01-04T22:44:46.781Z,6.78
2023-01-04T22:49:47.009Z,6.80
2023-01-04T22:54:47.409Z,6.82
2023-01-04T22:59:46.769Z,6.84
2023-01-04T23:04:46.740Z,6.86
2023-01-04T23:09:47.473Z,6.89
2023-01-04T23:14:46.943Z,6.93
2023-01-04T23:19:46.566Z,6.98
2023-01-04T23:24:48.161Z,7.03
2023-01-04T23:29:46.533Z,7.05
2023-01-04T23:34:48.985Z,7.11
2023-01-04T23:39:48.214Z,7.12
2023-01-04T23:44:46.756Z,7.15
2023-01-04T23:49:46.949Z,7.21
2023-01-04T23:54:47.339Z,7.25
2023-01-04T23:59:46.736Z,7.27
